Impacts TAF Board INFO
FOR SITUATIONAL AWARENESS. NOT TO BE USED FOR FLIGHT PLANNING PURPOSES.
IDs:

KMSP - Minneapolis-St Paul, MN, US

Issued at 0520 UTC 17 Aug 2018
Updated at 0526 UTC 17 Aug 2018
Potential Impact None Slight Moderate High
Time0453Z 17/06Z 17/07Z 17/08Z 17/09Z 17/10Z 17/11Z 17/12Z 17/13Z 17/14Z 17/15Z 17/16Z 17/17Z 17/18Z>>
Type OBS PRVL PRVL PRVL PRVL PRVL PRVL PRVL PRVL PRVL PRVL PRVL PRVL PRVL
VIS 10 >6 >6 >6 >6 >6 >6 >6 >6 >6 >6 >6 >6 >6
CIG -- -- -- -- -- -- -- -- -- -- -- -- -- --
Cover SCT SCT SCT SCT SCT SCT SCT SCT SCT SCT SCT FEW FEW FEW
FltCat VFR VFR VFR VFR VFR VFR VFR VFR VFR VFR VFR VFR VFR VFR
WX -- -- -- -- -- -- -- -- -- -- -- -- -- --
WDir 350 10 10 10 10 10 10 10 10 10 10 340 340 340
WSpd 5 5 5 5 5 5 5 5 5 5 5 7 7 7
WGst -- -- -- -- -- -- -- -- -- -- -- -- -- --

Raw TAF
KMSP 170520Z 1706/1812 01005KT P6SM SCT250
  FM171600 34007KT P6SM FEW250
  FM180300 VRB03KT P6SM SKC


Raw METAR
KMSP 170453Z 35005KT 10SM SCT300 24/18 A3000 RMK AO2 SLP152 T02390178
KMSP 170353Z 01005KT 10SM SCT300 25/18 A3000 RMK AO2 SLP151 T02500178
KMSP 170253Z 03005KT 10SM SCT250 26/18 A3000 RMK AO2 SLP152 T02560178 53014

METAR Board
Radar Display
Forecast Discussion

FOR SITUATIONAL AWARENESS. NOT TO BE USED FOR FLIGHT PLANNING PURPOSES.